sensor_id;sensor_type;location;lat;lon;timestamp;P1;durP1;ratioP1;P2;durP2;ratioP2
18702;SDS011;9481;48.796;9.210;2023-01-28T00:00:04;7.63;;;5.47;;
18702;SDS011;9481;48.796;9.210;2023-01-28T00:02:32;8.10;;;5.27;;
18702;SDS011;9481;48.796;9.210;2023-01-28T00:04:59;7.80;;;4.87;;
18702;SDS011;9481;48.796;9.210;2023-01-28T00:07:25;6.83;;;5.00;;
18702;SDS011;9481;48.796;9.210;2023-01-28T00:09:51;7.03;;;4.87;;
18702;SDS011;9481;48.796;9.210;2023-01-28T00:12:17;7.93;;;5.60;;
18702;SDS011;9481;48.796;9.210;2023-01-28T00:14:43;8.43;;;5.77;;
18702;SDS011;9481;48.796;9.210;2023-01-28T00:17:10;7.90;;;5.00;;
18702;SDS011;9481;48.796;9.210;2023-01-28T00:19:36;7.60;;;5.17;;
18702;SDS011;9481;48.796;9.210;2023-01-28T00:22:02;7.37;;;5.10;;
18702;SDS011;9481;48.796;9.210;2023-01-28T00:24:28;7.93;;;5.33;;
18702;SDS011;9481;48.796;9.210;2023-01-28T00:26:54;7.80;;;4.70;;
18702;SDS011;9481;48.796;9.210;2023-01-28T00:29:20;6.60;;;4.70;;
18702;SDS011;9481;48.796;9.210;2023-01-28T00:31:45;8.17;;;4.70;;
18702;SDS011;9481;48.796;9.210;2023-01-28T00:34:11;7.07;;;4.90;;
18702;SDS011;9481;48.796;9.210;2023-01-28T00:36:37;8.73;;;5.40;;
18702;SDS011;9481;48.796;9.210;2023-01-28T00:39:03;8.07;;;4.43;;
18702;SDS011;9481;48.796;9.210;2023-01-28T00:41:30;8.20;;;5.40;;
18702;SDS011;9481;48.796;9.210;2023-01-28T00:43:56;6.73;;;4.73;;
18702;SDS011;9481;48.796;9.210;2023-01-28T00:46:23;7.07;;;4.53;;
18702;SDS011;9481;48.796;9.210;2023-01-28T00:48:50;6.43;;;4.50;;
18702;SDS011;9481;48.796;9.210;2023-01-28T00:51:16;7.07;;;5.10;;
18702;SDS011;9481;48.796;9.210;2023-01-28T00:53:44;5.67;;;4.20;;
18702;SDS011;9481;48.796;9.210;2023-01-28T00:56:12;6.47;;;4.60;;
18702;SDS011;9481;48.796;9.210;2023-01-28T00:58:40;6.60;;;4.43;;
18702;SDS011;9481;48.796;9.210;2023-01-28T01:01:07;8.00;;;4.53;;
18702;SDS011;9481;48.796;9.210;2023-01-28T01:03:44;7.47;;;4.80;;
18702;SDS011;9481;48.796;9.210;2023-01-28T01:06:10;6.70;;;4.93;;
18702;SDS011;9481;48.796;9.210;2023-01-28T01:08:38;7.23;;;4.93;;
18702;SDS011;9481;48.796;9.210;2023-01-28T01:11:07;6.60;;;4.83;;
18702;SDS011;9481;48.796;9.210;2023-01-28T01:13:35;7.20;;;4.70;;
18702;SDS011;9481;48.796;9.210;2023-01-28T01:16:14;8.60;;;4.70;;
18702;SDS011;9481;48.796;9.210;2023-01-28T01:18:40;7.13;;;4.90;;
18702;SDS011;9481;48.796;9.210;2023-01-28T01:21:08;6.80;;;4.60;;
18702;SDS011;9481;48.796;9.210;2023-01-28T01:23:36;7.07;;;4.43;;
18702;SDS011;9481;48.796;9.210;2023-01-28T01:26:03;7.33;;;4.40;;
18702;SDS011;9481;48.796;9.210;2023-01-28T01:28:30;6.27;;;4.23;;
18702;SDS011;9481;48.796;9.210;2023-01-28T01:31:00;7.07;;;5.00;;
18702;SDS011;9481;48.796;9.210;2023-01-28T01:33:32;6.33;;;4.30;;
18702;SDS011;9481;48.796;9.210;2023-01-28T01:35:58;6.67;;;5.07;;
18702;SDS011;9481;48.796;9.210;2023-01-28T01:38:24;6.40;;;4.20;;
18702;SDS011;9481;48.796;9.210;2023-01-28T01:40:51;6.33;;;4.40;;
18702;SDS011;9481;48.796;9.210;2023-01-28T01:43:21;7.30;;;4.87;;
18702;SDS011;9481;48.796;9.210;2023-01-28T01:45:57;6.50;;;4.43;;
18702;SDS011;9481;48.796;9.210;2023-01-28T01:48:31;6.97;;;4.33;;
18702;SDS011;9481;48.796;9.210;2023-01-28T01:51:00;5.50;;;4.27;;
18702;SDS011;9481;48.796;9.210;2023-01-28T01:53:33;7.27;;;4.40;;
18702;SDS011;9481;48.796;9.210;2023-01-28T01:56:04;5.40;;;4.07;;
18702;SDS011;9481;48.796;9.210;2023-01-28T01:58:35;5.87;;;4.17;;
18702;SDS011;9481;48.796;9.210;2023-01-28T02:01:06;6.50;;;4.60;;
18702;SDS011;9481;48.796;9.210;2023-01-28T02:06:44;6.17;;;3.90;;
18702;SDS011;9481;48.796;9.210;2023-01-28T02:09:21;5.80;;;4.03;;
18702;SDS011;9481;48.796;9.210;2023-01-28T02:11:59;6.40;;;4.20;;
18702;SDS011;9481;48.796;9.210;2023-01-28T02:14:53;5.13;;;3.63;;
18702;SDS011;9481;48.796;9.210;2023-01-28T02:17:26;6.03;;;4.20;;
18702;SDS011;9481;48.796;9.210;2023-01-28T02:19:59;6.67;;;4.40;;
18702;SDS011;9481;48.796;9.210;2023-01-28T02:26:00;5.90;;;4.40;;
18702;SDS011;9481;48.796;9.210;2023-01-28T02:31:33;7.27;;;3.77;;
18702;SDS011;9481;48.796;9.210;2023-01-28T02:36:55;5.83;;;3.60;;
18702;SDS011;9481;48.796;9.210;2023-01-28T02:39:41;5.73;;;4.00;;
18702;SDS011;9481;48.796;9.210;2023-01-28T02:42:26;5.53;;;4.10;;
18702;SDS011;9481;48.796;9.210;2023-01-28T02:44:56;6.13;;;4.13;;
18702;SDS011;9481;48.796;9.210;2023-01-28T02:47:21;5.73;;;4.10;;
18702;SDS011;9481;48.796;9.210;2023-01-28T02:50:15;5.53;;;3.97;;
18702;SDS011;9481;48.796;9.210;2023-01-28T02:58:43;4.77;;;3.90;;
18702;SDS011;9481;48.796;9.210;2023-01-28T03:01:27;6.87;;;3.43;;
18702;SDS011;9481;48.796;9.210;2023-01-28T03:06:43;6.03;;;4.03;;
18702;SDS011;9481;48.796;9.210;2023-01-28T03:09:15;6.33;;;4.07;;
18702;SDS011;9481;48.796;9.210;2023-01-28T03:11:51;4.77;;;3.97;;
18702;SDS011;9481;48.796;9.210;2023-01-28T03:17:57;5.80;;;3.70;;
18702;SDS011;9481;48.796;9.210;2023-01-28T03:24:05;5.53;;;4.00;;
18702;SDS011;9481;48.796;9.210;2023-01-28T03:30:00;5.17;;;3.57;;
18702;SDS011;9481;48.796;9.210;2023-01-28T03:32:55;5.97;;;3.90;;
18702;SDS011;9481;48.796;9.210;2023-01-28T03:35:43;5.70;;;3.97;;
18702;SDS011;9481;48.796;9.210;2023-01-28T03:38:29;7.43;;;4.20;;
18702;SDS011;9481;48.796;9.210;2023-01-28T03:41:06;5.20;;;3.73;;
18702;SDS011;9481;48.796;9.210;2023-01-28T03:43:34;6.87;;;4.57;;
18702;SDS011;9481;48.796;9.210;2023-01-28T03:46:01;6.83;;;4.67;;
18702;SDS011;9481;48.796;9.210;2023-01-28T03:48:30;6.53;;;4.60;;
18702;SDS011;9481;48.796;9.210;2023-01-28T03:50:56;6.57;;;4.40;;
18702;SDS011;9481;48.796;9.210;2023-01-28T03:53:25;4.40;;;4.00;;
18702;SDS011;9481;48.796;9.210;2023-01-28T03:55:52;6.03;;;4.40;;
18702;SDS011;9481;48.796;9.210;2023-01-28T03:58:20;7.73;;;5.00;;
18702;SDS011;9481;48.796;9.210;2023-01-28T04:00:51;6.37;;;4.70;;
18702;SDS011;9481;48.796;9.210;2023-01-28T04:03:18;7.13;;;5.10;;
18702;SDS011;9481;48.796;9.210;2023-01-28T04:05:46;7.17;;;5.10;;
18702;SDS011;9481;48.796;9.210;2023-01-28T04:08:24;8.13;;;5.43;;
18702;SDS011;9481;48.796;9.210;2023-01-28T04:10:50;8.63;;;4.93;;
18702;SDS011;9481;48.796;9.210;2023-01-28T04:13:16;6.33;;;4.73;;
18702;SDS011;9481;48.796;9.210;2023-01-28T04:15:45;5.83;;;4.57;;
18702;SDS011;9481;48.796;9.210;2023-01-28T04:18:11;7.43;;;5.40;;
18702;SDS011;9481;48.796;9.210;2023-01-28T04:20:37;6.27;;;5.10;;
18702;SDS011;9481;48.796;9.210;2023-01-28T04:23:03;6.37;;;4.67;;
18702;SDS011;9481;48.796;9.210;2023-01-28T04:25:31;6.43;;;4.93;;
18702;SDS011;9481;48.796;9.210;2023-01-28T04:27:56;7.03;;;4.53;;
18702;SDS011;9481;48.796;9.210;2023-01-28T04:30:22;6.17;;;4.77;;
18702;SDS011;9481;48.796;9.210;2023-01-28T04:32:48;6.60;;;4.50;;
18702;SDS011;9481;48.796;9.210;2023-01-28T04:35:17;6.63;;;4.37;;
18702;SDS011;9481;48.796;9.210;2023-01-28T04:37:43;6.27;;;4.50;;
18702;SDS011;9481;48.796;9.210;2023-01-28T04:40:10;6.90;;;4.50;;
18702;SDS011;9481;48.796;9.210;2023-01-28T04:42:37;7.90;;;5.50;;
18702;SDS011;9481;48.796;9.210;2023-01-28T04:45:03;7.47;;;4.87;;
18702;SDS011;9481;48.796;9.210;2023-01-28T04:47:29;7.53;;;4.80;;
18702;SDS011;9481;48.796;9.210;2023-01-28T04:49:55;7.27;;;5.00;;
18702;SDS011;9481;48.796;9.210;2023-01-28T04:52:21;8.07;;;5.23;;
18702;SDS011;9481;48.796;9.210;2023-01-28T04:54:47;9.53;;;5.63;;
18702;SDS011;9481;48.796;9.210;2023-01-28T04:57:12;8.73;;;4.97;;
18702;SDS011;9481;48.796;9.210;2023-01-28T04:59:39;8.23;;;5.23;;
18702;SDS011;9481;48.796;9.210;2023-01-28T05:02:04;7.93;;;5.77;;
18702;SDS011;9481;48.796;9.210;2023-01-28T05:04:30;7.93;;;5.50;;
18702;SDS011;9481;48.796;9.210;2023-01-28T05:06:55;7.80;;;5.77;;
18702;SDS011;9481;48.796;9.210;2023-01-28T05:09:22;8.30;;;5.50;;
18702;SDS011;9481;48.796;9.210;2023-01-28T05:11:48;9.03;;;5.70;;
18702;SDS011;9481;48.796;9.210;2023-01-28T05:14:13;8.20;;;5.73;;
18702;SDS011;9481;48.796;9.210;2023-01-28T05:16:39;6.80;;;4.87;;
18702;SDS011;9481;48.796;9.210;2023-01-28T05:19:05;7.67;;;5.53;;
18702;SDS011;9481;48.796;9.210;2023-01-28T05:21:30;8.67;;;5.80;;
18702;SDS011;9481;48.796;9.210;2023-01-28T05:23:56;8.13;;;5.87;;
18702;SDS011;9481;48.796;9.210;2023-01-28T05:26:22;8.37;;;5.83;;
18702;SDS011;9481;48.796;9.210;2023-01-28T05:28:47;7.53;;;5.60;;
18702;SDS011;9481;48.796;9.210;2023-01-28T05:31:15;6.63;;;5.03;;
18702;SDS011;9481;48.796;9.210;2023-01-28T05:33:41;6.63;;;5.03;;
18702;SDS011;9481;48.796;9.210;2023-01-28T05:36:06;6.37;;;4.80;;
18702;SDS011;9481;48.796;9.210;2023-01-28T05:38:32;7.73;;;5.20;;
18702;SDS011;9481;48.796;9.210;2023-01-28T05:40:58;7.80;;;5.60;;
18702;SDS011;9481;48.796;9.210;2023-01-28T05:43:23;7.20;;;5.23;;
18702;SDS011;9481;48.796;9.210;2023-01-28T05:45:49;7.37;;;5.17;;
18702;SDS011;9481;48.796;9.210;2023-01-28T05:48:14;6.27;;;5.30;;
18702;SDS011;9481;48.796;9.210;2023-01-28T05:50:40;7.40;;;5.30;;
18702;SDS011;9481;48.796;9.210;2023-01-28T05:53:06;7.33;;;5.43;;
18702;SDS011;9481;48.796;9.210;2023-01-28T05:55:32;6.90;;;5.00;;
18702;SDS011;9481;48.796;9.210;2023-01-28T05:57:58;9.17;;;5.50;;
18702;SDS011;9481;48.796;9.210;2023-01-28T06:00:24;7.83;;;5.47;;
18702;SDS011;9481;48.796;9.210;2023-01-28T06:02:49;7.43;;;5.37;;
18702;SDS011;9481;48.796;9.210;2023-01-28T06:05:16;7.67;;;5.20;;
18702;SDS011;9481;48.796;9.210;2023-01-28T06:07:48;8.20;;;5.53;;
18702;SDS011;9481;48.796;9.210;2023-01-28T06:10:14;7.93;;;5.27;;
18702;SDS011;9481;48.796;9.210;2023-01-28T06:12:43;8.57;;;5.70;;
18702;SDS011;9481;48.796;9.210;2023-01-28T06:15:12;8.17;;;5.67;;
18702;SDS011;9481;48.796;9.210;2023-01-28T06:17:38;8.23;;;5.77;;
18702;SDS011;9481;48.796;9.210;2023-01-28T06:20:04;7.73;;;5.80;;
18702;SDS011;9481;48.796;9.210;2023-01-28T06:22:32;8.80;;;5.20;;
18702;SDS011;9481;48.796;9.210;2023-01-28T06:24:58;8.73;;;5.47;;
18702;SDS011;9481;48.796;9.210;2023-01-28T06:27:23;8.10;;;5.67;;
18702;SDS011;9481;48.796;9.210;2023-01-28T06:29:49;7.93;;;5.73;;
18702;SDS011;9481;48.796;9.210;2023-01-28T06:32:15;7.40;;;5.40;;
18702;SDS011;9481;48.796;9.210;2023-01-28T06:34:40;6.40;;;4.90;;
18702;SDS011;9481;48.796;9.210;2023-01-28T06:37:06;8.33;;;5.63;;
18702;SDS011;9481;48.796;9.210;2023-01-28T06:39:32;7.10;;;5.57;;
18702;SDS011;9481;48.796;9.210;2023-01-28T06:41:58;8.07;;;5.27;;
18702;SDS011;9481;48.796;9.210;2023-01-28T06:44:24;7.47;;;5.47;;
18702;SDS011;9481;48.796;9.210;2023-01-28T06:46:50;8.77;;;5.60;;
18702;SDS011;9481;48.796;9.210;2023-01-28T06:49:16;7.37;;;5.60;;
18702;SDS011;9481;48.796;9.210;2023-01-28T06:51:41;9.67;;;5.37;;
18702;SDS011;9481;48.796;9.210;2023-01-28T06:54:07;9.13;;;5.67;;
18702;SDS011;9481;48.796;9.210;2023-01-28T06:56:33;9.13;;;6.13;;
18702;SDS011;9481;48.796;9.210;2023-01-28T06:58:59;8.10;;;5.60;;
18702;SDS011;9481;48.796;9.210;2023-01-28T07:01:25;8.10;;;6.00;;
18702;SDS011;9481;48.796;9.210;2023-01-28T07:03:50;9.10;;;6.13;;
18702;SDS011;9481;48.796;9.210;2023-01-28T07:06:16;8.47;;;6.00;;
18702;SDS011;9481;48.796;9.210;2023-01-28T07:08:41;7.77;;;5.43;;
18702;SDS011;9481;48.796;9.210;2023-01-28T07:11:07;9.10;;;6.27;;
18702;SDS011;9481;48.796;9.210;2023-01-28T07:13:33;9.03;;;6.03;;
18702;SDS011;9481;48.796;9.210;2023-01-28T07:15:59;8.07;;;6.10;;
18702;SDS011;9481;48.796;9.210;2023-01-28T07:18:24;8.03;;;5.83;;
18702;SDS011;9481;48.796;9.210;2023-01-28T07:20:50;8.33;;;5.97;;
18702;SDS011;9481;48.796;9.210;2023-01-28T07:23:16;8.60;;;5.77;;
18702;SDS011;9481;48.796;9.210;2023-01-28T07:25:42;9.43;;;6.37;;
18702;SDS011;9481;48.796;9.210;2023-01-28T07:28:08;8.17;;;5.47;;
18702;SDS011;9481;48.796;9.210;2023-01-28T07:30:35;7.27;;;5.37;;
18702;SDS011;9481;48.796;9.210;2023-01-28T07:33:00;8.27;;;5.63;;
18702;SDS011;9481;48.796;9.210;2023-01-28T07:35:27;8.70;;;5.80;;
18702;SDS011;9481;48.796;9.210;2023-01-28T07:37:57;8.30;;;6.20;;
18702;SDS011;9481;48.796;9.210;2023-01-28T07:40:25;9.13;;;6.00;;
18702;SDS011;9481;48.796;9.210;2023-01-28T07:42:52;8.20;;;6.03;;
18702;SDS011;9481;48.796;9.210;2023-01-28T07:45:19;10.23;;;6.20;;
18702;SDS011;9481;48.796;9.210;2023-01-28T07:48:02;9.30;;;5.90;;
18702;SDS011;9481;48.796;9.210;2023-01-28T07:50:31;9.37;;;6.43;;
18702;SDS011;9481;48.796;9.210;2023-01-28T07:53:03;9.70;;;6.10;;
18702;SDS011;9481;48.796;9.210;2023-01-28T07:55:35;7.97;;;6.00;;
18702;SDS011;9481;48.796;9.210;2023-01-28T07:58:03;8.67;;;6.30;;
18702;SDS011;9481;48.796;9.210;2023-01-28T08:00:32;10.13;;;6.03;;
18702;SDS011;9481;48.796;9.210;2023-01-28T08:03:01;8.87;;;6.33;;
18702;SDS011;9481;48.796;9.210;2023-01-28T08:05:37;9.80;;;6.27;;
18702;SDS011;9481;48.796;9.210;2023-01-28T08:08:09;8.03;;;5.87;;
18702;SDS011;9481;48.796;9.210;2023-01-28T08:10:36;8.57;;;5.70;;
18702;SDS011;9481;48.796;9.210;2023-01-28T08:13:03;9.87;;;6.33;;
18702;SDS011;9481;48.796;9.210;2023-01-28T08:15:30;8.67;;;6.47;;
18702;SDS011;9481;48.796;9.210;2023-01-28T08:17:56;10.47;;;7.13;;
18702;SDS011;9481;48.796;9.210;2023-01-28T08:20:23;9.63;;;6.57;;
18702;SDS011;9481;48.796;9.210;2023-01-28T08:22:50;8.63;;;6.27;;
18702;SDS011;9481;48.796;9.210;2023-01-28T08:25:16;9.80;;;6.60;;
18702;SDS011;9481;48.796;9.210;2023-01-28T08:27:42;10.63;;;6.17;;
18702;SDS011;9481;48.796;9.210;2023-01-28T08:30:08;10.87;;;6.60;;
18702;SDS011;9481;48.796;9.210;2023-01-28T08:32:34;9.97;;;6.50;;
18702;SDS011;9481;48.796;9.210;2023-01-28T08:35:01;8.07;;;6.13;;
18702;SDS011;9481;48.796;9.210;2023-01-28T08:37:28;9.20;;;6.30;;
18702;SDS011;9481;48.796;9.210;2023-01-28T08:39:53;10.20;;;6.60;;
18702;SDS011;9481;48.796;9.210;2023-01-28T08:42:19;8.63;;;6.30;;
18702;SDS011;9481;48.796;9.210;2023-01-28T08:44:45;10.97;;;6.70;;
18702;SDS011;9481;48.796;9.210;2023-01-28T08:47:12;9.23;;;7.00;;
18702;SDS011;9481;48.796;9.210;2023-01-28T08:49:38;9.97;;;6.23;;
18702;SDS011;9481;48.796;9.210;2023-01-28T08:52:04;10.10;;;6.87;;
18702;SDS011;9481;48.796;9.210;2023-01-28T08:54:30;10.20;;;7.10;;
18702;SDS011;9481;48.796;9.210;2023-01-28T08:56:57;10.73;;;7.20;;
18702;SDS011;9481;48.796;9.210;2023-01-28T08:59:23;8.67;;;6.30;;
18702;SDS011;9481;48.796;9.210;2023-01-28T09:01:48;9.57;;;6.03;;
18702;SDS011;9481;48.796;9.210;2023-01-28T09:04:14;9.97;;;6.77;;
18702;SDS011;9481;48.796;9.210;2023-01-28T09:06:40;9.73;;;7.10;;
18702;SDS011;9481;48.796;9.210;2023-01-28T09:09:06;9.27;;;6.57;;
18702;SDS011;9481;48.796;9.210;2023-01-28T09:11:31;8.53;;;6.43;;
18702;SDS011;9481;48.796;9.210;2023-01-28T09:13:57;8.80;;;6.77;;
18702;SDS011;9481;48.796;9.210;2023-01-28T09:16:23;9.33;;;6.80;;
18702;SDS011;9481;48.796;9.210;2023-01-28T09:18:49;10.40;;;6.60;;
18702;SDS011;9481;48.796;9.210;2023-01-28T09:21:15;12.90;;;6.87;;
18702;SDS011;9481;48.796;9.210;2023-01-28T09:23:41;10.53;;;7.03;;
18702;SDS011;9481;48.796;9.210;2023-01-28T09:26:07;9.37;;;6.50;;
18702;SDS011;9481;48.796;9.210;2023-01-28T09:28:33;11.13;;;7.30;;
18702;SDS011;9481;48.796;9.210;2023-01-28T09:31:03;10.27;;;7.20;;
18702;SDS011;9481;48.796;9.210;2023-01-28T09:33:32;10.53;;;7.50;;
18702;SDS011;9481;48.796;9.210;2023-01-28T09:36:00;9.40;;;7.00;;
18702;SDS011;9481;48.796;9.210;2023-01-28T09:38:28;10.67;;;7.67;;
18702;SDS011;9481;48.796;9.210;2023-01-28T09:40:55;10.57;;;7.10;;
18702;SDS011;9481;48.796;9.210;2023-01-28T09:43:29;12.07;;;7.77;;
18702;SDS011;9481;48.796;9.210;2023-01-28T09:46:13;10.13;;;7.40;;
18702;SDS011;9481;48.796;9.210;2023-01-28T09:48:43;10.50;;;7.53;;
18702;SDS011;9481;48.796;9.210;2023-01-28T09:51:27;11.77;;;7.70;;
18702;SDS011;9481;48.796;9.210;2023-01-28T09:54:12;10.63;;;7.30;;
18702;SDS011;9481;48.796;9.210;2023-01-28T09:57:05;9.93;;;7.27;;
18702;SDS011;9481;48.796;9.210;2023-01-28T09:59:42;11.60;;;7.70;;
18702;SDS011;9481;48.796;9.210;2023-01-28T10:02:19;10.63;;;7.27;;
18702;SDS011;9481;48.796;9.210;2023-01-28T10:13:39;14.23;;;8.40;;
18702;SDS011;9481;48.796;9.210;2023-01-28T10:18:57;11.17;;;8.00;;
18702;SDS011;9481;48.796;9.210;2023-01-28T10:21:36;11.13;;;7.73;;
18702;SDS011;9481;48.796;9.210;2023-01-28T10:24:16;10.00;;;6.03;;
18702;SDS011;9481;48.796;9.210;2023-01-28T10:26:52;12.47;;;7.63;;
18702;SDS011;9481;48.796;9.210;2023-01-28T10:29:19;13.67;;;8.83;;
18702;SDS011;9481;48.796;9.210;2023-01-28T10:31:54;12.63;;;7.70;;
18702;SDS011;9481;48.796;9.210;2023-01-28T10:34:28;10.13;;;7.70;;
18702;SDS011;9481;48.796;9.210;2023-01-28T10:36:54;11.03;;;7.63;;
18702;SDS011;9481;48.796;9.210;2023-01-28T10:39:22;12.37;;;8.60;;
18702;SDS011;9481;48.796;9.210;2023-01-28T10:41:50;12.83;;;8.30;;
18702;SDS011;9481;48.796;9.210;2023-01-28T10:44:30;11.70;;;8.17;;
18702;SDS011;9481;48.796;9.210;2023-01-28T10:47:03;12.13;;;7.77;;
18702;SDS011;9481;48.796;9.210;2023-01-28T10:49:50;13.50;;;7.47;;
18702;SDS011;9481;48.796;9.210;2023-01-28T10:52:21;12.23;;;7.87;;
18702;SDS011;9481;48.796;9.210;2023-01-28T10:54:57;11.00;;;7.90;;
18702;SDS011;9481;48.796;9.210;2023-01-28T10:57:28;11.67;;;8.33;;
18702;SDS011;9481;48.796;9.210;2023-01-28T10:59:56;14.17;;;9.40;;
18702;SDS011;9481;48.796;9.210;2023-01-28T11:02:27;12.43;;;8.73;;
18702;SDS011;9481;48.796;9.210;2023-01-28T11:07:49;14.77;;;9.20;;
18702;SDS011;9481;48.796;9.210;2023-01-28T11:10:35;13.63;;;9.63;;
18702;SDS011;9481;48.796;9.210;2023-01-28T11:13:03;13.53;;;8.83;;
18702;SDS011;9481;48.796;9.210;2023-01-28T11:15:37;13.50;;;8.60;;
18702;SDS011;9481;48.796;9.210;2023-01-28T11:18:27;12.67;;;8.60;;
18702;SDS011;9481;48.796;9.210;2023-01-28T11:20:59;14.67;;;8.77;;
18702;SDS011;9481;48.796;9.210;2023-01-28T11:23:32;14.40;;;8.73;;
18702;SDS011;9481;48.796;9.210;2023-01-28T11:26:13;14.80;;;9.27;;
18702;SDS011;9481;48.796;9.210;2023-01-28T11:28:44;12.63;;;8.97;;
18702;SDS011;9481;48.796;9.210;2023-01-28T11:31:11;13.37;;;9.53;;
18702;SDS011;9481;48.796;9.210;2023-01-28T11:33:47;13.37;;;8.63;;
18702;SDS011;9481;48.796;9.210;2023-01-28T11:36:28;14.00;;;8.77;;
18702;SDS011;9481;48.796;9.210;2023-01-28T11:41:33;13.87;;;9.37;;
18702;SDS011;9481;48.796;9.210;2023-01-28T12:02:08;14.87;;;8.70;;
18702;SDS011;9481;48.796;9.210;2023-01-28T12:05:07;13.37;;;8.67;;
18702;SDS011;9481;48.796;9.210;2023-01-28T12:07:58;13.40;;;8.63;;
18702;SDS011;9481;48.796;9.210;2023-01-28T12:13:42;12.40;;;7.97;;
18702;SDS011;9481;48.796;9.210;2023-01-28T12:17:15;11.97;;;8.60;;
18702;SDS011;9481;48.796;9.210;2023-01-28T12:25:51;12.90;;;7.63;;
18702;SDS011;9481;48.796;9.210;2023-01-28T12:37:47;13.00;;;8.43;;
18702;SDS011;9481;48.796;9.210;2023-01-28T12:49:13;16.63;;;9.30;;
18702;SDS011;9481;48.796;9.210;2023-01-28T12:52:11;16.03;;;10.20;;
18702;SDS011;9481;48.796;9.210;2023-01-28T12:57:38;13.87;;;8.27;;
18702;SDS011;9481;48.796;9.210;2023-01-28T13:00:21;15.00;;;9.40;;
18702;SDS011;9481;48.796;9.210;2023-01-28T13:05:59;16.07;;;9.40;;
18702;SDS011;9481;48.796;9.210;2023-01-28T13:08:33;15.17;;;9.47;;
18702;SDS011;9481;48.796;9.210;2023-01-28T13:10:59;16.27;;;10.80;;
18702;SDS011;9481;48.796;9.210;2023-01-28T13:13:28;15.37;;;9.87;;
18702;SDS011;9481;48.796;9.210;2023-01-28T13:16:01;14.43;;;9.60;;
18702;SDS011;9481;48.796;9.210;2023-01-28T13:21:04;16.23;;;9.93;;
18702;SDS011;9481;48.796;9.210;2023-01-28T13:23:50;13.83;;;8.97;;
18702;SDS011;9481;48.796;9.210;2023-01-28T13:31:39;14.30;;;8.23;;
18702;SDS011;9481;48.796;9.210;2023-01-28T13:34:25;10.70;;;7.30;;
18702;SDS011;9481;48.796;9.210;2023-01-28T13:37:16;9.47;;;6.40;;
18702;SDS011;9481;48.796;9.210;2023-01-28T13:42:39;9.30;;;6.23;;
18702;SDS011;9481;48.796;9.210;2023-01-28T13:47:42;8.77;;;5.70;;
18702;SDS011;9481;48.796;9.210;2023-01-28T13:50:41;10.00;;;5.20;;
18702;SDS011;9481;48.796;9.210;2023-01-28T13:53:16;10.03;;;5.27;;
18702;SDS011;9481;48.796;9.210;2023-01-28T13:56:15;8.07;;;4.60;;
18702;SDS011;9481;48.796;9.210;2023-01-28T14:11:24;7.47;;;5.27;;
18702;SDS011;9481;48.796;9.210;2023-01-28T14:14:30;7.60;;;5.00;;
18702;SDS011;9481;48.796;9.210;2023-01-28T14:17:29;9.13;;;4.70;;
18702;SDS011;9481;48.796;9.210;2023-01-28T14:20:03;7.50;;;5.03;;
18702;SDS011;9481;48.796;9.210;2023-01-28T14:22:33;7.37;;;5.13;;
18702;SDS011;9481;48.796;9.210;2023-01-28T14:25:00;7.70;;;5.13;;
18702;SDS011;9481;48.796;9.210;2023-01-28T14:27:37;9.10;;;5.57;;
18702;SDS011;9481;48.796;9.210;2023-01-28T14:33:00;7.50;;;5.00;;
18702;SDS011;9481;48.796;9.210;2023-01-28T14:35:32;8.83;;;5.13;;
18702;SDS011;9481;48.796;9.210;2023-01-28T14:38:07;8.13;;;5.10;;
18702;SDS011;9481;48.796;9.210;2023-01-28T14:40:44;8.23;;;4.93;;
18702;SDS011;9481;48.796;9.210;2023-01-28T14:43:19;10.33;;;5.63;;
18702;SDS011;9481;48.796;9.210;2023-01-28T14:48:32;9.50;;;5.93;;
18702;SDS011;9481;48.796;9.210;2023-01-28T14:54:09;8.97;;;5.17;;
18702;SDS011;9481;48.796;9.210;2023-01-28T14:59:51;8.40;;;5.13;;
18702;SDS011;9481;48.796;9.210;2023-01-28T15:02:26;6.90;;;4.93;;
18702;SDS011;9481;48.796;9.210;2023-01-28T15:04:54;7.47;;;5.30;;
18702;SDS011;9481;48.796;9.210;2023-01-28T15:07:42;8.20;;;5.30;;
18702;SDS011;9481;48.796;9.210;2023-01-28T15:10:14;7.63;;;5.03;;
18702;SDS011;9481;48.796;9.210;2023-01-28T15:12:59;8.87;;;5.67;;
18702;SDS011;9481;48.796;9.210;2023-01-28T15:15:40;8.17;;;5.00;;
18702;SDS011;9481;48.796;9.210;2023-01-28T15:18:17;6.13;;;4.80;;
18702;SDS011;9481;48.796;9.210;2023-01-28T15:20:49;7.77;;;5.00;;
18702;SDS011;9481;48.796;9.210;2023-01-28T15:23:24;7.27;;;4.83;;
18702;SDS011;9481;48.796;9.210;2023-01-28T15:26:06;6.87;;;4.80;;
18702;SDS011;9481;48.796;9.210;2023-01-28T15:28:47;5.13;;;3.97;;
18702;SDS011;9481;48.796;9.210;2023-01-28T15:31:18;6.90;;;4.80;;
18702;SDS011;9481;48.796;9.210;2023-01-28T15:36:37;5.93;;;4.30;;
18702;SDS011;9481;48.796;9.210;2023-01-28T15:39:03;5.20;;;3.90;;
18702;SDS011;9481;48.796;9.210;2023-01-28T15:41:38;6.50;;;4.20;;
18702;SDS011;9481;48.796;9.210;2023-01-28T15:44:18;6.03;;;4.37;;
18702;SDS011;9481;48.796;9.210;2023-01-28T15:47:21;6.17;;;3.97;;
18702;SDS011;9481;48.796;9.210;2023-01-28T15:49:51;6.20;;;3.93;;
18702;SDS011;9481;48.796;9.210;2023-01-28T15:52:20;6.00;;;4.30;;
18702;SDS011;9481;48.796;9.210;2023-01-28T15:55:00;5.73;;;4.33;;
18702;SDS011;9481;48.796;9.210;2023-01-28T15:57:28;5.40;;;3.70;;
18702;SDS011;9481;48.796;9.210;2023-01-28T16:00:11;4.70;;;3.90;;
18702;SDS011;9481;48.796;9.210;2023-01-28T16:02:42;6.00;;;4.20;;
18702;SDS011;9481;48.796;9.210;2023-01-28T16:05:27;6.73;;;4.77;;
18702;SDS011;9481;48.796;9.210;2023-01-28T16:08:00;5.60;;;4.30;;
18702;SDS011;9481;48.796;9.210;2023-01-28T16:10:32;5.70;;;4.03;;
18702;SDS011;9481;48.796;9.210;2023-01-28T16:13:10;5.33;;;3.90;;
18702;SDS011;9481;48.796;9.210;2023-01-28T16:15:49;5.73;;;3.90;;
18702;SDS011;9481;48.796;9.210;2023-01-28T16:21:03;7.23;;;4.27;;
18702;SDS011;9481;48.796;9.210;2023-01-28T16:23:31;6.20;;;4.23;;
18702;SDS011;9481;48.796;9.210;2023-01-28T16:25:58;5.80;;;4.07;;
18702;SDS011;9481;48.796;9.210;2023-01-28T16:28:28;5.73;;;4.00;;
18702;SDS011;9481;48.796;9.210;2023-01-28T16:30:55;5.20;;;4.03;;
18702;SDS011;9481;48.796;9.210;2023-01-28T16:33:22;5.47;;;4.20;;
18702;SDS011;9481;48.796;9.210;2023-01-28T16:35:48;5.90;;;4.10;;
18702;SDS011;9481;48.796;9.210;2023-01-28T16:38:15;8.60;;;4.60;;
18702;SDS011;9481;48.796;9.210;2023-01-28T16:40:44;6.70;;;4.37;;
18702;SDS011;9481;48.796;9.210;2023-01-28T16:43:11;4.83;;;3.57;;
18702;SDS011;9481;48.796;9.210;2023-01-28T16:45:42;5.10;;;3.73;;
18702;SDS011;9481;48.796;9.210;2023-01-28T16:48:10;6.80;;;4.30;;
18702;SDS011;9481;48.796;9.210;2023-01-28T16:50:39;4.57;;;3.57;;
18702;SDS011;9481;48.796;9.210;2023-01-28T16:53:16;4.83;;;3.93;;
18702;SDS011;9481;48.796;9.210;2023-01-28T16:55:49;4.50;;;3.80;;
18702;SDS011;9481;48.796;9.210;2023-01-28T16:58:21;7.17;;;4.00;;
18702;SDS011;9481;48.796;9.210;2023-01-28T17:00:50;5.40;;;3.87;;
18702;SDS011;9481;48.796;9.210;2023-01-28T17:03:17;7.57;;;4.00;;
18702;SDS011;9481;48.796;9.210;2023-01-28T17:05:43;4.90;;;3.70;;
18702;SDS011;9481;48.796;9.210;2023-01-28T17:08:10;5.77;;;3.97;;
18702;SDS011;9481;48.796;9.210;2023-01-28T17:10:35;4.90;;;3.80;;
18702;SDS011;9481;48.796;9.210;2023-01-28T17:13:01;8.67;;;4.33;;
18702;SDS011;9481;48.796;9.210;2023-01-28T17:15:27;5.23;;;4.07;;
18702;SDS011;9481;48.796;9.210;2023-01-28T17:17:53;5.20;;;4.20;;
18702;SDS011;9481;48.796;9.210;2023-01-28T17:20:19;5.73;;;4.30;;
18702;SDS011;9481;48.796;9.210;2023-01-28T17:22:45;5.73;;;4.63;;
18702;SDS011;9481;48.796;9.210;2023-01-28T17:25:11;6.07;;;4.20;;
18702;SDS011;9481;48.796;9.210;2023-01-28T17:27:38;5.60;;;3.93;;
18702;SDS011;9481;48.796;9.210;2023-01-28T17:30:04;4.97;;;4.07;;
18702;SDS011;9481;48.796;9.210;2023-01-28T17:32:31;7.00;;;4.70;;
18702;SDS011;9481;48.796;9.210;2023-01-28T17:34:57;5.63;;;3.87;;
18702;SDS011;9481;48.796;9.210;2023-01-28T17:37:23;5.63;;;4.30;;
18702;SDS011;9481;48.796;9.210;2023-01-28T17:39:48;6.27;;;4.60;;
18702;SDS011;9481;48.796;9.210;2023-01-28T17:42:14;6.70;;;4.40;;